Time;durP1;ratioP1;P1;durP2;ratioP2;P2;SDS_P1;SDS_P2;PMS_P1;PMS_P2;Temp;Humidity;BMP_temperature;BMP_pressure;BME280_temperature;BME280_humidity;BME280_pressure;Samples;Min_cycle;Max_cycle;Signal;HPM_P1;HPM_P2
2021/05/22 00:00:00;;;;;;;4.90;2.90;;;14.60;39.60;;;;;;5100024;28;21039;-85
2021/05/22 00:02:27;;;;;;;4.03;2.30;;;14.50;39.60;;;;;;5099253;28;20474;-85
2021/05/22 00:04:54;;;;;;;3.17;2.37;;;14.70;39.00;;;;;;5098699;28;20436;-85
2021/05/22 00:07:20;;;;;;;3.57;2.20;;;13.90;41.70;;;;;;5098965;28;20458;-85
2021/05/22 00:09:48;;;;;;;4.43;2.30;;;13.70;41.20;;;;;;5098637;28;20470;-85
2021/05/22 00:12:15;;;;;;;2.00;1.90;;;13.50;41.60;;;;;;5098980;28;20515;-83
2021/05/22 00:14:42;;;;;;;5.17;2.40;;;13.50;42.10;;;;;;5099013;28;20477;-86
2021/05/22 00:17:08;;;;;;;2.60;2.17;;;13.40;42.60;;;;;;5098714;28;20466;-85
2021/05/22 00:19:35;;;;;;;3.20;2.20;;;13.30;43.40;;;;;;5099514;28;20543;-85
2021/05/22 00:22:01;;;;;;;2.80;2.10;;;13.60;42.20;;;;;;5099824;28;20499;-85
2021/05/22 00:24:28;;;;;;;3.20;2.10;;;13.20;42.70;;;;;;5098168;28;20799;-85
2021/05/22 00:26:55;;;;;;;3.50;2.20;;;13.10;43.40;;;;;;5098348;28;20443;-85
2021/05/22 00:29:22;;;;;;;3.87;2.30;;;13.30;42.80;;;;;;5104005;28;20508;-84
2021/05/22 00:31:52;;;;;;;3.47;2.40;;;13.30;44.00;;;;;;5104195;28;20445;-85
2021/05/22 00:34:19;;;;;;;2.23;2.00;;;13.10;44.00;;;;;;5099352;28;20415;-85
2021/05/22 00:36:46;;;;;;;5.73;2.30;;;13.40;42.60;;;;;;5100201;28;20829;-85
2021/05/22 00:39:16;;;;;;;5.47;2.37;;;12.80;43.70;;;;;;5098394;28;20450;-85
2021/05/22 00:41:45;;;;;;;4.93;2.10;;;13.10;44.30;;;;;;5098577;28;20475;-85
2021/05/22 00:44:12;;;;;;;6.07;2.20;;;13.60;44.80;;;;;;5098684;28;20806;-86
2021/05/22 00:46:39;;;;;;;4.00;2.10;;;13.50;43.10;;;;;;5098747;28;20450;-85
2021/05/22 00:49:05;;;;;;;2.53;2.17;;;13.70;42.40;;;;;;5097502;28;20553;-85
2021/05/22 00:51:32;;;;;;;2.20;2.00;;;13.30;42.50;;;;;;5098130;28;20544;-85
2021/05/22 00:53:58;;;;;;;2.73;2.27;;;13.20;43.60;;;;;;5098356;28;20431;-84
2021/05/22 00:56:26;;;;;;;6.90;2.13;;;13.20;42.70;;;;;;5098189;28;20501;-85
2021/05/22 00:58:55;;;;;;;4.50;2.30;;;13.30;42.80;;;;;;5099033;28;20465;-85
2021/05/22 01:01:23;;;;;;;4.40;2.10;;;13.30;42.30;;;;;;5098094;28;20561;-85
2021/05/22 01:03:52;;;;;;;2.33;2.13;;;13.40;43.00;;;;;;5099611;28;20958;-85
2021/05/22 01:06:26;;;;;;;2.80;2.00;;;13.50;43.70;;;;;;5099058;28;20504;-86
2021/05/22 01:08:55;;;;;;;2.60;2.10;;;13.70;43.90;;;;;;5098511;28;20466;-86
2021/05/22 01:11:24;;;;;;;2.90;2.40;;;14.10;42.60;;;;;;5106254;28;20827;-84
2021/05/22 01:13:57;;;;;;;4.20;2.40;;;13.70;41.80;;;;;;5099487;28;20993;-85
2021/05/22 01:16:25;;;;;;;3.30;2.30;;;13.40;44.10;;;;;;5097524;28;20430;-86
2021/05/22 01:18:54;;;;;;;2.40;2.03;;;13.50;43.20;;;;;;5096970;28;20882;-86
2021/05/22 01:21:20;;;;;;;5.67;2.50;;;13.60;43.80;;;;;;5097891;28;20463;-85
2021/05/22 01:23:52;;;;;;;2.90;2.07;;;13.70;42.60;;;;;;5097218;28;20476;-85
2021/05/22 01:26:21;;;;;;;3.70;2.13;;;13.70;44.10;;;;;;5098045;28;20545;-86
2021/05/22 01:28:48;;;;;;;4.47;2.43;;;13.90;43.10;;;;;;5099167;28;20466;-86
2021/05/22 01:31:14;;;;;;;2.10;1.93;;;13.50;43.70;;;;;;5100026;28;20454;-85
2021/05/22 01:33:44;;;;;;;5.43;2.27;;;13.50;43.20;;;;;;5097500;28;20455;-85
2021/05/22 01:36:10;;;;;;;2.80;2.20;;;13.30;43.90;;;;;;5096978;28;20474;-84
2021/05/22 01:38:37;;;;;;;3.10;2.30;;;13.40;45.20;;;;;;5097352;28;20450;-86
2021/05/22 01:41:04;;;;;;;8.30;3.20;;;13.70;42.10;;;;;;5097804;28;20446;-84
2021/05/22 01:43:31;;;;;;;5.47;2.20;;;13.80;43.00;;;;;;5100519;28;20463;-86
2021/05/22 01:45:58;;;;;;;5.30;2.10;;;13.60;41.90;;;;;;5100496;28;20446;-86
2021/05/22 01:48:26;;;;;;;2.90;2.10;;;13.40;42.50;;;;;;5101129;28;20503;-85
2021/05/22 01:50:59;;;;;;;2.20;2.10;;;13.30;43.90;;;;;;5105536;28;20509;-84
2021/05/22 01:53:28;;;;;;;4.30;2.40;;;13.30;44.50;;;;;;5101643;28;20439;-84
2021/05/22 01:55:55;;;;;;;9.77;2.50;;;13.60;43.70;;;;;;5099636;28;20450;-84
2021/05/22 01:58:23;;;;;;;2.80;2.13;;;13.80;42.10;;;;;;5100580;28;20451;-84
2021/05/22 02:00:51;;;;;;;5.20;2.30;;;13.60;43.30;;;;;;5099772;28;20567;-84
2021/05/22 02:03:25;;;;;;;9.53;2.73;;;13.50;43.10;;;;;;5099875;28;20449;-84
2021/05/22 02:05:54;;;;;;;6.80;2.87;;;13.20;43.90;;;;;;5100251;28;20450;-83
2021/05/22 02:08:24;;;;;;;2.23;1.80;;;13.40;44.40;;;;;;5100328;28;20439;-85
2021/05/22 02:10:51;;;;;;;3.63;2.27;;;13.20;44.40;;;;;;5100835;28;20463;-85
2021/05/22 02:13:19;;;;;;;3.30;2.00;;;13.20;43.70;;;;;;5101139;28;20481;-85
2021/05/22 02:15:50;;;;;;;7.50;2.63;;;13.30;42.80;;;;;;5100326;28;20894;-85
2021/05/22 02:18:18;;;;;;;3.23;2.50;;;13.30;43.30;;;;;;5099979;28;20435;-84
2021/05/22 02:20:46;;;;;;;2.50;2.17;;;13.30;42.90;;;;;;5098677;28;20497;-85
2021/05/22 02:23:14;;;;;;;3.67;2.20;;;13.80;43.40;;;;;;5099130;28;20835;-85
2021/05/22 02:25:41;;;;;;;26.73;2.30;;;13.50;42.50;;;;;;5100066;28;20458;-85
2021/05/22 02:28:08;;;;;;;3.13;2.00;;;13.40;43.50;;;;;;5099319;28;20446;-84
2021/05/22 02:30:36;;;;;;;14.20;3.40;;;13.10;44.10;;;;;;5099136;28;20474;-84
2021/05/22 02:33:04;;;;;;;3.27;2.00;;;13.10;44.60;;;;;;5100428;28;20470;-84
2021/05/22 02:35:33;;;;;;;3.87;2.77;;;13.10;44.30;;;;;;5100435;28;20466;-84
2021/05/22 02:37:59;;;;;;;5.37;2.80;;;13.40;44.80;;;;;;5107271;28;20451;-85
2021/05/22 02:40:29;;;;;;;3.50;2.50;;;13.40;43.50;;;;;;5106828;28;20451;-85
2021/05/22 02:42:59;;;;;;;4.20;2.17;;;13.50;44.60;;;;;;5108404;28;20508;-85
2021/05/22 02:45:28;;;;;;;2.43;2.30;;;13.80;45.60;;;;;;5113942;28;20779;-85
2021/05/22 02:47:57;;;;;;;5.50;2.40;;;13.40;43.70;;;;;;5113732;28;20464;-83
2021/05/22 02:50:26;;;;;;;2.73;2.20;;;13.30;44.90;;;;;;5111943;28;20467;-84
2021/05/22 02:52:55;;;;;;;8.50;2.50;;;13.20;44.20;;;;;;5099277;28;20433;-85
2021/05/22 02:55:21;;;;;;;3.00;2.07;;;13.00;45.40;;;;;;5100235;28;20992;-85
2021/05/22 02:57:49;;;;;;;4.30;2.60;;;13.10;45.70;;;;;;5099070;28;20477;-85
2021/05/22 03:00:17;;;;;;;1.90;1.90;;;13.20;44.70;;;;;;5098382;28;20466;-85
2021/05/22 03:02:44;;;;;;;3.33;2.20;;;13.00;47.00;;;;;;5098643;28;20478;-85
2021/05/22 03:05:13;;;;;;;4.60;2.07;;;13.60;45.80;;;;;;5098720;28;20470;-84
2021/05/22 03:07:39;;;;;;;7.27;2.40;;;13.40;44.90;;;;;;5098657;28;20505;-85
2021/05/22 03:10:08;;;;;;;7.70;3.03;;;13.20;45.50;;;;;;5098660;28;20995;-85
2021/05/22 03:12:37;;;;;;;3.60;2.20;;;12.90;45.70;;;;;;5098060;28;20569;-86
2021/05/22 03:15:05;;;;;;;2.43;2.10;;;12.90;45.70;;;;;;5098451;28;20472;-85
2021/05/22 03:17:32;;;;;;;4.90;2.40;;;12.80;46.20;;;;;;5098772;28;20458;-85
2021/05/22 03:19:58;;;;;;;13.20;2.57;;;12.90;47.00;;;;;;5097815;28;20481;-85
2021/05/22 03:22:25;;;;;;;3.33;2.23;;;13.20;46.70;;;;;;5097358;28;21018;-86
2021/05/22 03:24:51;;;;;;;2.27;2.00;;;13.30;45.90;;;;;;5098901;28;20442;-85
2021/05/22 03:27:19;;;;;;;3.50;2.13;;;12.90;46.00;;;;;;5097733;28;20524;-85
2021/05/22 03:29:46;;;;;;;5.63;2.13;;;13.00;46.10;;;;;;5098273;28;20787;-86
2021/05/22 03:32:13;;;;;;;2.00;1.90;;;13.00;45.70;;;;;;5097171;28;20430;-86
2021/05/22 03:34:39;;;;;;;3.37;2.17;;;13.40;46.00;;;;;;5097418;28;20958;-85
2021/05/22 03:37:06;;;;;;;4.03;2.40;;;13.20;45.30;;;;;;5097457;28;20482;-85
2021/05/22 03:39:33;;;;;;;2.73;2.00;;;12.80;46.60;;;;;;5098097;28;20454;-85
2021/05/22 03:41:59;;;;;;;5.20;2.37;;;13.00;47.60;;;;;;5098151;28;20485;-85
2021/05/22 03:44:27;;;;;;;2.63;2.10;;;13.20;45.50;;;;;;5107033;28;20441;-84
2021/05/22 03:46:53;;;;;;;2.40;2.10;;;13.40;46.60;;;;;;5108411;28;20438;-84
2021/05/22 03:49:20;;;;;;;3.33;2.30;;;13.50;45.20;;;;;;5109516;28;20461;-85
2021/05/22 03:51:46;;;;;;;5.03;2.70;;;13.30;45.70;;;;;;5109583;28;20445;-85
2021/05/22 03:54:13;;;;;;;2.47;1.97;;;13.30;46.90;;;;;;5112265;28;20946;-85
2021/05/22 03:56:39;;;;;;;3.70;2.30;;;13.20;45.50;;;;;;5105129;28;20431;-85
2021/05/22 03:59:06;;;;;;;3.70;2.10;;;13.40;46.00;;;;;;5098947;28;20466;-85
2021/05/22 04:01:33;;;;;;;8.93;2.20;;;13.20;46.00;;;;;;5099053;28;20915;-86
2021/05/22 04:04:00;;;;;;;5.03;2.20;;;13.60;45.80;;;;;;5098639;28;20457;-85
2021/05/22 04:06:31;;;;;;;4.00;2.50;;;13.70;45.10;;;;;;5098600;28;20434;-86
2021/05/22 04:08:59;;;;;;;3.33;2.37;;;13.80;45.00;;;;;;5098083;28;20470;-86
2021/05/22 04:11:26;;;;;;;3.53;2.23;;;14.10;44.30;;;;;;5098968;28;20438;-86
2021/05/22 04:13:52;;;;;;;7.80;2.30;;;13.90;44.20;;;;;;5097843;28;20461;-85
2021/05/22 04:16:19;;;;;;;3.17;2.20;;;13.70;44.60;;;;;;5099290;28;20435;-86
2021/05/22 04:18:46;;;;;;;4.00;2.30;;;14.10;44.10;;;;;;5098397;28;20474;-86
2021/05/22 04:21:12;;;;;;;3.50;2.37;;;14.20;43.70;;;;;;5097786;28;20454;-85
2021/05/22 04:23:40;;;;;;;5.33;2.30;;;14.20;43.60;;;;;;5097037;28;20457;-85
2021/05/22 04:26:09;;;;;;;7.43;2.70;;;14.00;44.20;;;;;;5097657;28;20454;-85
2021/05/22 04:28:35;;;;;;;5.03;2.07;;;14.00;44.00;;;;;;5096893;28;20450;-85
2021/05/22 04:31:05;;;;;;;6.60;2.27;;;14.00;43.70;;;;;;5098078;28;20536;-85
2021/05/22 04:33:31;;;;;;;11.50;3.67;;;14.10;43.90;;;;;;5098022;28;20484;-85
2021/05/22 04:35:59;;;;;;;6.37;2.27;;;14.20;44.90;;;;;;5099170;28;20435;-86
2021/05/22 04:38:25;;;;;;;3.60;2.30;;;14.50;43.70;;;;;;5099677;28;20446;-85
2021/05/22 04:40:52;;;;;;;5.50;2.70;;;15.00;43.30;;;;;;5098934;28;20883;-85
2021/05/22 04:43:19;;;;;;;4.53;2.37;;;14.90;42.90;;;;;;5105546;28;20482;-84
2021/05/22 04:45:46;;;;;;;7.50;2.33;;;15.00;42.90;;;;;;5115450;28;20486;-84
2021/05/22 04:48:12;;;;;;;4.30;2.27;;;15.10;43.80;;;;;;5116491;28;20427;-84
2021/05/22 04:50:40;;;;;;;7.93;2.50;;;15.10;41.70;;;;;;5115958;28;20511;-86
2021/05/22 04:53:10;;;;;;;5.70;2.70;;;15.20;42.20;;;;;;5111197;28;20439;-86
2021/05/22 04:55:37;;;;;;;14.73;3.30;;;15.10;42.80;;;;;;5100966;28;20466;-86
2021/05/22 04:58:06;;;;;;;7.07;2.63;;;15.30;42.80;;;;;;5099646;28;20447;-86
2021/05/22 05:00:33;;;;;;;2.87;2.40;;;15.40;40.90;;;;;;5098727;28;20466;-86
2021/05/22 05:03:00;;;;;;;4.03;2.73;;;15.60;44.00;;;;;;5099014;28;20950;-85
2021/05/22 05:05:26;;;;;;;7.13;2.70;;;15.50;41.40;;;;;;5097997;28;20481;-85
2021/05/22 05:07:53;;;;;;;5.60;2.43;;;15.30;42.70;;;;;;5097029;28;20458;-85
2021/05/22 05:10:33;;;;;;;5.07;2.57;;;15.50;40.50;;;;;;5096404;28;20485;-84
2021/05/22 05:12:59;;;;;;;4.40;2.50;;;15.60;40.60;;;;;;5096894;28;20459;-85
2021/05/22 05:15:27;;;;;;;7.90;2.90;;;15.80;41.10;;;;;;5097404;28;20444;-85
2021/05/22 05:17:53;;;;;;;4.83;2.73;;;15.40;41.10;;;;;;5100153;28;20437;-86
2021/05/22 05:20:20;;;;;;;7.37;2.53;;;15.50;42.80;;;;;;5100672;28;20506;-85
2021/05/22 05:22:50;;;;;;;5.63;2.43;;;15.60;40.60;;;;;;5100842;28;20486;-85
2021/05/22 05:25:17;;;;;;;8.43;2.80;;;15.30;40.90;;;;;;5100474;28;20449;-85
2021/05/22 05:27:48;;;;;;;5.00;2.20;;;14.70;41.30;;;;;;5100991;28;20441;-85
2021/05/22 05:30:18;;;;;;;3.77;2.37;;;15.30;41.90;;;;;;5099767;28;20953;-85
2021/05/22 05:32:45;;;;;;;13.47;2.53;;;15.30;40.30;;;;;;5100752;28;20434;-85
2021/05/22 05:35:12;;;;;;;9.23;3.13;;;15.50;40.50;;;;;;5100902;28;20453;-84
2021/05/22 05:37:39;;;;;;;9.23;2.70;;;16.60;38.60;;;;;;5102160;28;20442;-84
2021/05/22 05:40:07;;;;;;;6.20;2.60;;;17.60;37.10;;;;;;5104422;28;20545;-85
2021/05/22 05:42:33;;;;;;;4.30;2.07;;;19.30;34.30;;;;;;5100095;28;20503;-84
2021/05/22 05:45:01;;;;;;;5.77;2.30;;;19.80;33.30;;;;;;5099726;28;20453;-84
2021/05/22 05:47:28;;;;;;;5.60;1.97;;;20.50;31.50;;;;;;5100042;28;20450;-85
2021/05/22 05:49:54;;;;;;;6.70;2.60;;;21.20;30.90;;;;;;5099650;28;20547;-85
2021/05/22 05:52:20;;;;;;;3.57;2.30;;;21.80;29.10;;;;;;5099746;28;20446;-85
2021/05/22 05:54:54;;;;;;;10.30;2.50;;;21.70;29.20;;;;;;5098665;28;20529;-85
2021/05/22 05:57:28;;;;;;;5.37;2.40;;;22.20;28.20;;;;;;5099186;28;20426;-84
2021/05/22 06:00:06;;;;;;;11.00;2.20;;;22.30;27.30;;;;;;5098854;28;20518;-85
2021/05/22 06:02:37;;;;;;;6.33;2.50;;;22.00;29.10;;;;;;5098762;28;20526;-85
2021/05/22 06:05:05;;;;;;;7.07;2.67;;;21.60;28.50;;;;;;5099557;28;20439;-84
2021/05/22 06:07:34;;;;;;;5.33;2.60;;;21.00;29.20;;;;;;5099165;28;20430;-84
2021/05/22 06:10:06;;;;;;;12.70;2.80;;;21.70;31.30;;;;;;5099360;28;20553;-85
2021/05/22 06:12:35;;;;;;;3.87;2.07;;;21.00;29.90;;;;;;5100950;28;20447;-85
2021/05/22 06:15:08;;;;;;;15.80;3.53;;;19.40;30.30;;;;;;5108145;28;20430;-84
2021/05/22 06:17:37;;;;;;;4.23;2.23;;;18.60;32.30;;;;;;5101377;28;20437;-84
2021/05/22 06:20:05;;;;;;;5.90;2.10;;;18.20;35.60;;;;;;5107902;28;20475;-85
2021/05/22 06:22:32;;;;;;;6.93;2.50;;;18.20;33.80;;;;;;5106259;28;20478;-86
2021/05/22 06:25:04;;;;;;;4.30;2.23;;;18.10;33.50;;;;;;5100603;28;20892;-85
2021/05/22 06:27:31;;;;;;;7.37;2.57;;;17.90;34.80;;;;;;5098982;28;20416;-85
2021/05/22 06:29:57;;;;;;;8.20;2.53;;;17.00;35.10;;;;;;5098849;28;20845;-85
2021/05/22 06:32:29;;;;;;;6.13;3.17;;;17.30;35.00;;;;;;5098452;28;20469;-84
2021/05/22 06:34:55;;;;;;;12.20;2.87;;;18.00;34.80;;;;;;5099191;28;20541;-85
2021/05/22 06:37:23;;;;;;;15.70;3.37;;;18.30;33.60;;;;;;5098668;28;20446;-85
2021/05/22 06:39:50;;;;;;;9.03;2.57;;;18.10;33.50;;;;;;5098722;28;20476;-85
2021/05/22 06:42:16;;;;;;;9.50;2.70;;;18.20;33.50;;;;;;5099254;28;20470;-85
2021/05/22 06:44:48;;;;;;;5.67;2.20;;;18.50;33.50;;;;;;5099295;28;20859;-86
2021/05/22 06:47:15;;;;;;;6.17;2.70;;;18.70;33.00;;;;;;5098883;28;20462;-85
2021/05/22 06:49:42;;;;;;;11.73;2.43;;;18.30;33.90;;;;;;5097920;28;20470;-85
2021/05/22 06:52:09;;;;;;;6.67;2.47;;;17.90;34.40;;;;;;5098856;28;20452;-85
2021/05/22 06:54:35;;;;;;;12.33;3.53;;;18.10;34.40;;;;;;5098133;28;20564;-85
2021/05/22 06:57:02;;;;;;;8.50;2.87;;;17.90;34.10;;;;;;5098111;28;20470;-84
2021/05/22 06:59:28;;;;;;;5.23;2.30;;;17.10;35.90;;;;;;5101933;28;20466;-84
2021/05/22 07:01:55;;;;;;;10.00;2.40;;;16.90;34.60;;;;;;5106646;28;20488;-84
2021/05/22 07:04:24;;;;;;;8.13;2.57;;;17.10;35.70;;;;;;5099512;28;20825;-85
2021/05/22 07:06:52;;;;;;;18.00;3.13;;;17.80;35.00;;;;;;5098566;28;20457;-84
2021/05/22 07:09:18;;;;;;;6.90;2.93;;;17.80;34.80;;;;;;5113710;22;20493;-86
2021/05/22 07:11:44;;;;;;;4.80;2.47;;;17.90;34.40;;;;;;5095550;28;20511;-86
2021/05/22 07:14:11;;;;;;;8.00;2.20;;;18.10;36.10;;;;;;5095405;28;20497;-87
2021/05/22 07:16:37;;;;;;;6.13;2.40;;;17.90;34.50;;;;;;5096430;28;20443;-87
2021/05/22 07:19:04;;;;;;;8.60;2.30;;;18.40;34.50;;;;;;5098779;28;20465;-87
2021/05/22 07:21:31;;;;;;;16.00;2.50;;;19.30;30.20;;;;;;5100837;28;20470;-86
2021/05/22 07:23:59;;;;;;;5.97;2.07;;;19.50;29.60;;;;;;5098025;28;20445;-87
2021/05/22 07:26:25;;;;;;;10.50;2.53;;;19.40;29.50;;;;;;5098159;28;20482;-87
2021/05/22 07:28:53;;;;;;;6.53;2.47;;;19.10;30.80;;;;;;5095236;28;20761;-88
2021/05/22 07:31:20;;;;;;;6.13;2.53;;;19.30;31.30;;;;;;5095909;28;20453;-88
2021/05/22 07:33:46;;;;;;;8.53;2.73;;;19.80;32.30;;;;;;5094845;28;20446;-87
2021/05/22 07:36:12;;;;;;;4.63;2.13;;;19.70;29.70;;;;;;5095311;28;20845;-88
2021/05/22 07:38:41;;;;;;;8.50;2.43;;;20.30;29.20;;;;;;5094376;28;20585;-87
2021/05/22 07:41:08;;;;;;;12.37;2.40;;;20.50;28.40;;;;;;5094854;28;20445;-87
2021/05/22 07:43:35;;;;;;;11.37;2.80;;;20.30;29.60;;;;;;5094621;28;20482;-88
2021/05/22 07:46:01;;;;;;;10.33;2.63;;;21.30;28.70;;;;;;5096019;28;20518;-87
2021/05/22 07:48:27;;;;;;;13.63;4.13;;;22.80;27.40;;;;;;5095035;28;20939;-88
2021/05/22 07:50:54;;;;;;;10.63;2.40;;;24.00;25.70;;;;;;5095185;28;20435;-89
2021/05/22 07:53:21;;;;;;;6.40;2.43;;;24.50;25.00;;;;;;5096311;28;20443;-89
2021/05/22 07:55:48;;;;;;;5.23;2.17;;;25.50;24.00;;;;;;5096803;28;20983;-87
2021/05/22 07:58:16;;;;;;;5.17;2.13;;;26.00;23.90;;;;;;5095866;28;20574;-88
2021/05/22 08:00:43;;;;;;;4.80;2.47;;;26.00;22.90;;;;;;5094320;28;21034;-88
2021/05/22 08:03:09;;;;;;;5.80;2.23;;;25.70;22.40;;;;;;5093784;28;20957;-88
2021/05/22 08:05:36;;;;;;;12.87;2.40;;;25.70;21.90;;;;;;5094685;28;20495;-87
2021/05/22 08:08:03;;;;;;;6.20;2.43;;;25.30;23.40;;;;;;5096402;28;20457;-87
2021/05/22 08:10:29;;;;;;;4.87;2.00;;;24.60;24.20;;;;;;5093822;28;20566;-87
2021/05/22 08:12:56;;;;;;;7.93;2.60;;;24.60;22.40;;;;;;5098207;28;20438;-87
2021/05/22 08:15:23;;;;;;;3.93;2.03;;;23.30;23.20;;;;;;5096770;28;20540;-88
2021/05/22 08:17:51;;;;;;;11.97;2.40;;;22.90;24.30;;;;;;5080659;28;20482;-88
2021/05/22 08:20:18;;;;;;;16.47;2.50;;;22.50;24.00;;;;;;5073802;28;20455;-87
2021/05/22 08:22:45;;;;;;;9.10;3.00;;;21.60;25.10;;;;;;5087104;28;21071;-86
2021/05/22 08:25:12;;;;;;;16.77;2.50;;;21.50;24.70;;;;;;5093609;28;20454;-87
2021/05/22 08:27:41;;;;;;;7.03;2.37;;;22.40;25.70;;;;;;5081914;28;20451;-87
2021/05/22 08:30:08;;;;;;;6.27;2.47;;;22.20;25.60;;;;;;5075370;28;20497;-87
2021/05/22 08:32:36;;;;;;;4.67;2.20;;;21.40;25.00;;;;;;5075899;28;20435;-86
2021/05/22 08:35:05;;;;;;;10.17;2.67;;;21.30;24.70;;;;;;5081051;28;20439;-86
2021/05/22 08:37:31;;;;;;;4.60;2.13;;;21.70;25.20;;;;;;5076632;28;20451;-84
2021/05/22 08:39:58;;;;;;;18.57;2.73;;;21.90;24.20;;;;;;5077139;28;20455;-85
2021/05/22 08:42:26;;;;;;;9.00;2.70;;;21.90;24.30;;;;;;5090453;28;20458;-85
2021/05/22 08:44:53;;;;;;;8.23;2.23;;;22.20;24.10;;;;;;5096900;28;20445;-85
2021/05/22 08:47:20;;;;;;;5.27;1.90;;;21.80;24.10;;;;;;5096435;28;20509;-86
2021/05/22 08:49:47;;;;;;;6.30;2.20;;;21.20;24.40;;;;;;5094869;28;20532;-86
2021/05/22 08:52:16;;;;;;;5.13;2.00;;;21.00;25.40;;;;;;5099745;28;20504;-85
2021/05/22 08:54:43;;;;;;;4.80;2.17;;;21.00;25.20;;;;;;5099213;28;20446;-85
2021/05/22 08:57:10;;;;;;;3.83;2.00;;;21.00;25.50;;;;;;5099439;28;20503;-85
2021/05/22 08:59:41;;;;;;;2.23;1.80;;;21.00;24.00;;;;;;5099233;28;20483;-85
2021/05/22 09:02:09;;;;;;;5.13;2.50;;;21.30;24.10;;;;;;5098883;28;20470;-85
2021/05/22 09:05:09;;;;;;;4.53;1.90;;;21.20;24.90;;;;;;5098560;28;20469;-87
2021/05/22 09:07:38;;;;;;;5.90;2.40;;;21.40;24.40;;;;;;5098521;28;20453;-87
2021/05/22 09:10:09;;;;;;;4.53;2.03;;;21.10;24.70;;;;;;5098431;28;20575;-87
2021/05/22 09:12:35;;;;;;;9.63;2.67;;;21.10;24.40;;;;;;5097335;28;20846;-88
2021/05/22 09:15:07;;;;;;;7.47;2.90;;;21.30;24.20;;;;;;5097721;28;20470;-87
2021/05/22 09:17:34;;;;;;;3.97;2.00;;;20.80;24.60;;;;;;5079332;28;20489;-87
2021/05/22 09:20:11;;;;;;;6.73;2.67;;;20.60;25.60;;;;;;5093568;28;20549;-87
2021/05/22 09:22:39;;;;;;;6.13;2.03;;;20.30;24.30;;;;;;5096890;28;20561;-88
2021/05/22 09:25:07;;;;;;;4.33;1.93;;;19.90;25.40;;;;;;5097773;28;20438;-87
2021/05/22 09:27:36;;;;;;;8.27;2.20;;;19.80;25.20;;;;;;5098131;28;20470;-87
2021/05/22 09:30:09;;;;;;;5.30;2.23;;;19.70;26.40;;;;;;5097548;28;20501;-87
2021/05/22 09:32:36;;;;;;;7.30;1.93;;;20.10;25.60;;;;;;5098203;28;20451;-87
2021/05/22 09:35:03;;;;;;;5.57;2.03;;;20.00;25.20;;;;;;5097107;28;20470;-87
2021/05/22 09:37:36;;;;;;;7.93;2.10;;;19.80;26.20;;;;;;5095789;28;20933;-87
2021/05/22 09:40:05;;;;;;;3.10;2.20;;;19.70;24.90;;;;;;5096632;28;20481;-87
2021/05/22 09:42:31;;;;;;;3.33;2.20;;;19.70;27.80;;;;;;5097521;28;20849;-87
2021/05/22 09:45:01;;;;;;;2.43;1.80;;;20.00;26.30;;;;;;5096766;28;20585;-88
2021/05/22 09:47:27;;;;;;;2.90;1.97;;;20.20;25.70;;;;;;5095368;28;20511;-88
2021/05/22 09:49:54;;;;;;;7.77;2.40;;;19.60;25.50;;;;;;5097294;28;20551;-87
2021/05/22 09:52:22;;;;;;;4.87;2.03;;;19.80;26.00;;;;;;5096349;28;20442;-88
2021/05/22 09:54:51;;;;;;;3.17;2.00;;;20.20;27.50;;;;;;5097195;28;20430;-87
2021/05/22 09:57:19;;;;;;;5.67;1.77;;;20.80;24.60;;;;;;5096218;28;20487;-87
2021/05/22 10:00:12;;;;;;;9.67;2.53;;;19.80;25.20;;;;;;5096379;28;20461;-87
2021/05/22 10:02:43;;;;;;;10.50;2.20;;;18.80;27.00;;;;;;5096218;28;20473;-87
2021/05/22 10:05:14;;;;;;;9.10;2.10;;;18.80;25.40;;;;;;5096380;28;20899;-87
2021/05/22 10:07:41;;;;;;;2.20;1.70;;;19.40;25.70;;;;;;5096187;28;20535;-87
2021/05/22 10:10:08;;;;;;;3.10;2.03;;;19.60;24.80;;;;;;5096458;28;20513;-87
2021/05/22 10:12:39;;;;;;;4.00;2.37;;;19.40;25.20;;;;;;5095877;28;20587;-87
2021/05/22 10:15:06;;;;;;;4.13;2.40;;;19.40;25.60;;;;;;5097168;28;20458;-87
2021/05/22 10:17:33;;;;;;;3.03;2.00;;;19.70;25.80;;;;;;5097477;28;20450;-88
2021/05/22 10:20:00;;;;;;;9.33;2.03;;;19.50;25.60;;;;;;5096824;28;20466;-87
2021/05/22 10:22:26;;;;;;;4.30;2.00;;;19.90;25.60;;;;;;5076505;28;20570;-87
2021/05/22 10:24:53;;;;;;;11.07;1.90;;;20.10;24.50;;;;;;5077419;28;20451;-87
2021/05/22 10:27:21;;;;;;;4.47;2.10;;;20.10;25.20;;;;;;5076112;28;20438;-87
2021/05/22 10:29:48;;;;;;;3.33;2.37;;;19.60;25.00;;;;;;5076133;28;20824;-87
2021/05/22 10:32:21;;;;;;;14.83;2.60;;;19.40;25.80;;;;;;5094487;28;20481;-87
2021/05/22 10:34:49;;;;;;;7.80;1.97;;;20.10;25.90;;;;;;5094941;28;20493;-87
2021/05/22 10:37:41;;;;;;;4.00;1.97;;;20.80;24.90;;;;;;5096149;28;20999;-87
2021/05/22 10:40:09;;;;;;;5.17;2.10;;;20.80;24.60;;;;;;5096008;28;20496;-87
2021/05/22 10:42:48;;;;;;;2.60;1.63;;;20.00;24.30;;;;;;5095107;28;20569;-88
2021/05/22 10:45:35;;;;;;;4.23;2.00;;;20.20;24.80;;;;;;5095246;28;20450;-87
2021/05/22 10:48:04;;;;;;;8.30;2.27;;;20.30;24.20;;;;;;5075641;28;20447;-87
2021/05/22 10:50:43;;;;;;;4.47;2.10;;;20.10;24.90;;;;;;5074481;28;20467;-89
2021/05/22 10:53:29;;;;;;;4.63;1.93;;;19.70;24.70;;;;;;5074815;28;20521;-87
2021/05/22 10:56:10;;;;;;;6.07;2.00;;;19.50;25.60;;;;;;5080716;28;20841;-87
2021/05/22 10:58:38;;;;;;;19.00;2.20;;;19.80;26.10;;;;;;5095465;28;20464;-87
2021/05/22 11:01:34;;;;;;;4.73;1.93;;;20.30;25.70;;;;;;5094790;28;20943;-88
2021/05/22 11:04:30;;;;;;;5.70;2.00;;;20.60;25.50;;;;;;5093722;28;20516;-87
2021/05/22 11:06:59;;;;;;;3.53;2.03;;;20.20;25.30;;;;;;5094491;28;20450;-87
2021/05/22 11:09:50;;;;;;;3.20;1.80;;;19.40;23.60;;;;;;5094012;28;20502;-87
2021/05/22 11:12:49;;;;;;;6.70;2.00;;;19.30;24.10;;;;;;5094558;28;20883;-87
2021/05/22 11:15:51;;;;;;;7.83;2.10;;;19.30;24.50;;;;;;5073653;28;20453;-87
2021/05/22 11:18:21;;;;;;;5.97;2.27;;;19.30;23.60;;;;;;5074783;28;20808;-87
2021/05/22 11:21:15;;;;;;;6.17;2.00;;;19.40;25.40;;;;;;5080050;28;20442;-87
2021/05/22 11:24:08;;;;;;;7.13;2.73;;;19.20;24.90;;;;;;5094670;28;20493;-87
2021/05/22 11:26:56;;;;;;;7.50;2.10;;;19.70;23.80;;;;;;5094324;28;20470;-88
2021/05/22 11:29:24;;;;;;;9.23;2.00;;;20.00;23.20;;;;;;5095591;28;20492;-88
2021/05/22 11:31:50;;;;;;;4.67;1.90;;;20.20;24.20;;;;;;5095854;28;20447;-88
2021/05/22 11:34:33;;;;;;;5.73;2.07;;;20.40;24.30;;;;;;5096329;28;20465;-87
2021/05/22 11:37:31;;;;;;;3.90;1.77;;;20.10;24.10;;;;;;5096493;28;20419;-87
2021/05/22 11:39:58;;;;;;;4.07;2.00;;;20.00;25.00;;;;;;5075162;28;20467;-88
2021/05/22 11:42:35;;;;;;;5.63;1.80;;;20.40;23.10;;;;;;5097405;28;20531;-87
2021/05/22 11:45:04;;;;;;;5.20;2.00;;;20.30;24.20;;;;;;5107865;28;20456;-88
2021/05/22 11:47:31;;;;;;;2.70;2.23;;;20.20;22.70;;;;;;5112061;28;20438;-87
2021/05/22 11:49:59;;;;;;;4.87;2.00;;;20.40;24.80;;;;;;5110099;28;20512;-87
2021/05/22 11:52:29;;;;;;;3.07;2.00;;;20.40;23.20;;;;;;5110116;28;20439;-87
2021/05/22 11:54:56;;;;;;;2.87;2.00;;;20.80;23.20;;;;;;5104902;28;21021;-87
2021/05/22 11:57:23;;;;;;;10.83;1.97;;;20.80;22.20;;;;;;5094072;28;20513;-87
2021/05/22 11:59:49;;;;;;;4.43;1.97;;;20.90;23.60;;;;;;5094783;28;20466;-87
2021/05/22 12:02:37;;;;;;;8.33;1.93;;;20.30;22.20;;;;;;5094694;28;20474;-87
2021/05/22 12:05:08;;;;;;;12.20;3.13;;;20.10;22.90;;;;;;5095200;28;20472;-88
2021/05/22 12:07:47;;;;;;;3.17;2.00;;;20.50;21.70;;;;;;5096801;28;20537;-88
2021/05/22 12:10:14;;;;;;;6.43;2.10;;;20.60;23.20;;;;;;5096065;28;20484;-88
2021/05/22 12:12:41;;;;;;;9.33;2.00;;;20.80;21.80;;;;;;5096802;28;20489;-88
2021/05/22 12:15:20;;;;;;;4.70;1.87;;;21.00;22.20;;;;;;5095043;28;20946;-88
2021/05/22 12:17:48;;;;;;;5.53;1.93;;;20.80;21.80;;;;;;5095286;28;20505;-86
2021/05/22 12:20:16;;;;;;;8.10;3.20;;;20.60;21.40;;;;;;5098637;28;20474;-89
2021/05/22 12:22:42;;;;;;;2.30;1.80;;;20.60;23.10;;;;;;5097735;28;20477;-88
2021/05/22 12:25:10;;;;;;;7.33;2.13;;;20.90;21.60;;;;;;5098239;28;20473;-89
2021/05/22 12:27:36;;;;;;;4.30;1.70;;;21.00;22.10;;;;;;5093996;28;20465;-86
2021/05/22 12:30:05;;;;;;;4.30;2.17;;;20.60;21.40;;;;;;5093557;28;20983;-86
2021/05/22 12:32:32;;;;;;;4.57;2.13;;;20.70;23.10;;;;;;5090380;28;20486;-87
2021/05/22 12:34:59;;;;;;;3.30;2.03;;;21.30;23.00;;;;;;5073683;28;20451;-87
2021/05/22 12:37:27;;;;;;;5.43;1.90;;;20.80;22.00;;;;;;5074007;28;20442;-88
2021/05/22 12:39:59;;;;;;;3.03;2.10;;;20.90;22.00;;;;;;5074069;28;20980;-87
2021/05/22 12:42:28;;;;;;;5.23;2.30;;;20.80;22.60;;;;;;5074020;28;20575;-87
2021/05/22 12:44:56;;;;;;;4.90;2.00;;;20.60;20.50;;;;;;5074793;28;20448;-88
2021/05/22 12:47:24;;;;;;;7.67;2.17;;;20.30;21.80;;;;;;5075864;28;20492;-87
2021/05/22 12:49:58;;;;;;;2.87;1.87;;;20.00;22.70;;;;;;5076140;28;20479;-88
2021/05/22 12:52:27;;;;;;;5.30;1.70;;;20.60;22.10;;;;;;5077294;28;20450;-88
2021/05/22 12:54:53;;;;;;;3.10;1.60;;;20.60;21.50;;;;;;5094318;28;20430;-88